Time;durP1;ratioP1;P1;durP2;ratioP2;P2;SDS_P1;SDS_P2;PMS_P1;PMS_P2;Temp;Humidity;BMP_temperature;BMP_pressure;BME280_temperature;BME280_humidity;BME280_pressure;Samples;Min_cycle;Max_cycle;Signal;HPM_P1;HPM_P2
2021/10/02 00:36:35;;;;;;;;;;;20.30;98.70;;;;;;5056343;28;19909;-70
2021/10/02 00:47:05;;;;;;;;;;;20.40;98.30;;;;;;5055925;28;20406;-70
2021/10/02 00:49:32;;;;;;;;;;;20.60;97.90;;;;;;5055226;28;20024;-70
2021/10/02 00:51:58;;;;;;;;;;;20.90;97.10;;;;;;5054374;28;19938;-70
2021/10/02 00:54:25;;;;;;;;;;;21.00;96.90;;;;;;5056054;28;19958;-71
2021/10/02 00:56:52;;;;;;;;;;;21.30;96.60;;;;;;5055880;28;20016;-72
2021/10/02 00:59:18;;;;;;;;;;;21.50;96.30;;;;;;5055699;28;19948;-71
2021/10/02 01:02:11;;;;;;;;;;;22.20;95.40;;;;;;5055810;28;20333;-72
2021/10/02 01:04:56;;;;;;;;;;;22.40;95.80;;;;;;5056198;28;19909;-71
2021/10/02 01:07:42;;;;;;;;;;;22.60;94.30;;;;;;5056749;28;19912;-72
2021/10/02 01:10:17;;;;;;;;;;;22.50;94.60;;;;;;5055444;28;20004;-72
2021/10/02 01:13:02;;;;;;;;;;;22.50;94.40;;;;;;5055510;28;19913;-72
2021/10/02 01:15:51;;;;;;;;;;;22.10;94.30;;;;;;5055758;28;20313;-72
2021/10/02 01:18:24;;;;;;;;;;;21.60;94.00;;;;;;5056748;28;19913;-72
2021/10/02 01:20:50;;;;;;;;;;;21.30;94.20;;;;;;5055503;28;19909;-72
2021/10/02 01:23:17;;;;;;;;;;;21.10;94.60;;;;;;5055144;28;20371;-71
2021/10/02 01:26:10;;;;;;;;;;;21.00;95.00;;;;;;5053837;28;19909;-71
2021/10/02 01:28:38;;;;;;;;;;;21.00;95.10;;;;;;5055716;28;20427;-72
2021/10/02 01:31:20;;;;;;;;;;;21.00;94.70;;;;;;5055055;28;19931;-71
2021/10/02 01:47:15;;;;;;;;;;;21.10;94.00;;;;;;5054825;28;19927;-72
2021/10/02 01:49:43;;;;;;;;;;;21.00;94.20;;;;;;5054107;28;19969;-71
2021/10/02 01:52:10;;;;;;;;;;;20.90;93.80;;;;;;5054613;28;19909;-70
2021/10/02 01:54:37;;;;;;;;;;;21.10;94.60;;;;;;5055565;28;20007;-72
2021/10/02 01:57:05;;;;;;;;;;;21.20;95.20;;;;;;5055436;28;19916;-72
2021/10/02 01:59:32;;;;;;;;;;;21.40;94.70;;;;;;5055096;28;19912;-71
2021/10/02 02:02:01;;;;;;;;;;;21.40;94.70;;;;;;5055367;28;19913;-72
2021/10/02 02:04:29;;;;;;;;;;;21.50;94.90;;;;;;5054535;28;20426;-72
2021/10/02 02:06:57;;;;;;;;;;;21.70;94.20;;;;;;5055205;28;19909;-72
2021/10/02 02:09:26;;;;;;;;;;;21.80;94.10;;;;;;5055015;28;20366;-71
2021/10/02 02:11:52;;;;;;;;;;;21.90;93.90;;;;;;5055188;28;19912;-70
2021/10/02 02:14:19;;;;;;;;;;;21.90;94.30;;;;;;5054672;28;19975;-73
2021/10/02 02:16:46;;;;;;;;;;;21.70;93.90;;;;;;5055200;28;19913;-73
2021/10/02 02:19:15;;;;;;;;;;;21.50;93.40;;;;;;5054875;28;19915;-72
2021/10/02 02:21:44;;;;;;;;;;;21.30;94.40;;;;;;5055241;28;19915;-71
2021/10/02 02:24:11;;;;;;;;;;;21.20;94.60;;;;;;5054704;28;19944;-72
2021/10/02 02:26:38;;;;;;;;;;;21.20;95.20;;;;;;5054184;28;19960;-71
2021/10/02 02:29:05;;;;;;;;;;;21.20;94.80;;;;;;5053970;28;19917;-72
2021/10/02 02:31:32;;;;;;;;;;;21.30;94.30;;;;;;5056526;28;20012;-72
2021/10/02 02:34:00;;;;;;;;;;;21.40;94.30;;;;;;5053625;28;19913;-72
2021/10/02 02:36:27;;;;;;;;;;;21.40;94.40;;;;;;5053814;28;19971;-70
2021/10/02 02:38:54;;;;;;;;;;;21.40;94.40;;;;;;5053930;28;19909;-71
2021/10/02 02:41:20;;;;;;;;;;;21.40;94.20;;;;;;5053886;28;20348;-71
2021/10/02 02:43:49;;;;;;;;;;;21.30;94.00;;;;;;5053636;28;19971;-72
2021/10/02 02:46:30;;;;;;;;;;;21.40;96.70;;;;;;5053592;28;19952;-71
2021/10/02 02:49:17;;;;;;;;;;;21.30;96.30;;;;;;5052961;28;19924;-71
2021/10/02 02:51:56;;;;;;;;;;;21.20;97.00;;;;;;5055959;28;19909;-71
2021/10/02 02:54:22;;;;;;;;;;;21.10;97.10;;;;;;5053573;28;20371;-71
2021/10/02 02:56:51;;;;;;;;;;;21.00;97.50;;;;;;5053134;28;20276;-72
2021/10/02 02:59:25;;;;;;;;;;;20.90;98.10;;;;;;5054830;28;19909;-70
2021/10/02 03:01:52;;;;;;;;;;;20.90;98.60;;;;;;5053465;28;19916;-71
2021/10/02 03:04:20;;;;;;;;;;;20.90;98.90;;;;;;5053396;28;20373;-71
2021/10/02 03:06:52;;;;;;;;;;;20.70;99.40;;;;;;5053416;28;20007;-71
2021/10/02 03:09:19;;;;;;;;;;;20.50;99.40;;;;;;5054026;28;20435;-70
2021/10/02 03:11:47;;;;;;;;;;;20.40;99.60;;;;;;5053704;28;20044;-71
2021/10/02 03:14:18;;;;;;;;;;;20.50;99.40;;;;;;5053332;28;19909;-70
2021/10/02 03:16:45;;;;;;;;;;;20.50;99.70;;;;;;5053273;28;19913;-71
2021/10/02 03:19:13;;;;;;;;;;;20.50;99.60;;;;;;5053078;28;19913;-70
2021/10/02 03:21:40;;;;;;;;;;;20.60;99.40;;;;;;5052672;28;19915;-71
2021/10/02 03:24:07;;;;;;;;;;;20.60;99.60;;;;;;5052950;28;20442;-71
2021/10/02 03:26:34;;;;;;;;;;;20.50;99.70;;;;;;5053061;28;20374;-72
2021/10/02 03:29:00;;;;;;;;;;;20.50;99.80;;;;;;5052776;28;20438;-72
2021/10/02 03:31:27;;;;;;;;;;;20.50;98.40;;;;;;5053595;28;19909;-72
2021/10/02 03:33:55;;;;;;;;;;;20.40;98.60;;;;;;5052804;28;20264;-72
2021/10/02 03:36:22;;;;;;;;;;;20.40;99.10;;;;;;5084586;28;19919;-73
2021/10/02 03:38:49;;;;;;;;;;;20.40;98.80;;;;;;5052867;28;20319;-74
2021/10/02 03:41:15;;;;;;;;;;;20.50;98.70;;;;;;5051664;28;19935;-75
2021/10/02 03:43:42;;;;;;;;;;;20.50;98.50;;;;;;5051933;28;20287;-72
2021/10/02 03:46:08;;;;;;;;;;;20.70;98.20;;;;;;5049851;28;20485;-73
2021/10/02 03:48:35;;;;;;;;;;;20.90;97.80;;;;;;5050057;28;19960;-71
2021/10/02 03:51:02;;;;;;;;;;;20.90;97.90;;;;;;5050447;28;19913;-74
2021/10/02 03:53:29;;;;;;;;;;;21.00;97.90;;;;;;5050554;28;19909;-73
2021/10/02 03:55:56;;;;;;;;;;;20.90;97.80;;;;;;5050587;28;19909;-73
2021/10/02 03:58:23;;;;;;;;;;;20.90;97.50;;;;;;5050176;28;20003;-73
2021/10/02 04:00:49;;;;;;;;;;;20.90;97.80;;;;;;5050266;28;19920;-72
2021/10/02 04:03:16;;;;;;;;;;;21.00;98.10;;;;;;5049851;28;19915;-73
2021/10/02 04:05:43;;;;;;;;;;;21.10;97.60;;;;;;5050214;28;19913;-71
2021/10/02 04:08:09;;;;;;;;;;;21.00;98.40;;;;;;5049762;28;19978;-72
2021/10/02 04:10:36;;;;;;;;;;;21.00;99.20;;;;;;5050117;28;20432;-74
2021/10/02 04:13:06;;;;;;;;;;;21.00;99.40;;;;;;5050365;28;20298;-74
2021/10/02 04:15:34;;;;;;;;;;;21.00;99.00;;;;;;5049998;28;20371;-71
2021/10/02 04:18:01;;;;;;;;;;;20.80;99.40;;;;;;5049532;28;19909;-71
2021/10/02 04:20:28;;;;;;;;;;;20.80;99.90;;;;;;5050682;28;20326;-72
2021/10/02 04:22:54;;;;;;;;;;;20.90;99.90;;;;;;5050299;28;20412;-72
2021/10/02 04:25:21;;;;;;;;;;;20.80;99.90;;;;;;5050038;28;19952;-72
2021/10/02 04:27:48;;;;;;;;;;;20.70;99.90;;;;;;5081828;28;19919;-73
2021/10/02 04:30:14;;;;;;;;;;;20.60;99.90;;;;;;5050189;28;20007;-72
2021/10/02 04:32:41;;;;;;;;;;;20.60;99.90;;;;;;5049672;28;20356;-72
2021/10/02 04:35:08;;;;;;;;;;;20.70;99.90;;;;;;5050063;28;20043;-72
2021/10/02 04:37:35;;;;;;;;;;;20.80;99.90;;;;;;5049513;28;20279;-72
2021/10/02 04:40:01;;;;;;;;;;;20.80;99.90;;;;;;5050100;28;20342;-72
2021/10/02 04:42:28;;;;;;;;;;;20.90;99.90;;;;;;5050114;28;19913;-73
2021/10/02 04:44:55;;;;;;;;;;;20.70;99.90;;;;;;5049900;28;20543;-73
2021/10/02 04:47:23;;;;;;;;;;;20.60;99.90;;;;;;5048738;28;19924;-73
2021/10/02 04:49:50;;;;;;;;;;;20.40;99.90;;;;;;5049357;28;19924;-73
2021/10/02 04:52:16;;;;;;;;;;;20.30;99.90;;;;;;5049713;28;20311;-73
2021/10/02 04:54:43;;;;;;;;;;;20.20;99.90;;;;;;5050916;28;19908;-72
2021/10/02 04:57:10;;;;;;;;;;;20.10;99.90;;;;;;5051223;28;20011;-72
2021/10/02 04:59:36;;;;;;;;;;;20.10;99.90;;;;;;5050875;28;20027;-73
2021/10/02 05:02:03;;;;;;;;;;;19.90;99.90;;;;;;5050550;28;19909;-72
2021/10/02 05:04:30;;;;;;;;;;;19.80;99.90;;;;;;5050525;28;19978;-72
2021/10/02 05:06:56;;;;;;;;;;;19.70;99.90;;;;;;5049981;28;19924;-73
2021/10/02 05:09:23;;;;;;;;;;;19.40;99.90;;;;;;5049665;28;19925;-73
2021/10/02 05:11:50;;;;;;;;;;;19.20;99.90;;;;;;5049737;28;20252;-72
2021/10/02 05:14:16;;;;;;;;;;;19.00;99.90;;;;;;5050456;28;19911;-72
2021/10/02 05:16:43;;;;;;;;;;;18.90;99.90;;;;;;5049993;28;19923;-74
2021/10/02 05:19:09;;;;;;;;;;;18.50;99.90;;;;;;5052571;28;19913;-73
2021/10/02 05:21:36;;;;;;;;;;;18.10;99.90;;;;;;5053677;28;19908;-74
2021/10/02 05:24:03;;;;;;;;;;;17.80;99.90;;;;;;5053232;28;19919;-73
2021/10/02 05:26:30;;;;;;;;;;;17.60;99.90;;;;;;5053106;28;19909;-75
2021/10/02 05:28:57;;;;;;;;;;;17.40;99.90;;;;;;5052974;28;19924;-74
2021/10/02 05:31:24;;;;;;;;;;;17.30;99.90;;;;;;5053510;28;19913;-74
2021/10/02 05:33:51;;;;;;;;;;;17.20;99.90;;;;;;5085087;28;19913;-74
2021/10/02 05:36:17;;;;;;;;;;;17.10;99.90;;;;;;5054424;28;19919;-73
2021/10/02 05:38:44;;;;;;;;;;;17.00;99.90;;;;;;5053749;28;19930;-74
2021/10/02 05:41:11;;;;;;;;;;;16.90;99.90;;;;;;5064896;28;20352;-74
2021/10/02 05:43:37;;;;;;;;;;;16.80;99.90;;;;;;5059455;28;20395;-75
2021/10/02 05:46:04;;;;;;;;;;;16.80;99.90;;;;;;5053578;28;21296;-74
2021/10/02 05:48:30;;;;;;;;;;;16.80;99.90;;;;;;5053723;28;19913;-74
2021/10/02 05:50:57;;;;;;;;;;;16.80;99.90;;;;;;5053114;28;19915;-76
2021/10/02 05:53:24;;;;;;;;;;;16.70;99.90;;;;;;5053030;28;20359;-73
2021/10/02 05:55:50;;;;;;;;;;;16.90;99.90;;;;;;5052368;28;19999;-75
2021/10/02 05:58:17;;;;;;;;;;;16.90;99.90;;;;;;5052997;28;19951;-75
2021/10/02 06:00:44;;;;;;;;;;;16.90;99.90;;;;;;5052810;28;20260;-74
2021/10/02 06:03:10;;;;;;;;;;;16.90;99.90;;;;;;5052969;28;20015;-76
2021/10/02 06:05:37;;;;;;;;;;;16.90;99.90;;;;;;5052383;28;19951;-75
2021/10/02 06:08:04;;;;;;;;;;;16.90;99.90;;;;;;5052449;28;19915;-75
2021/10/02 06:10:31;;;;;;;;;;;16.90;99.90;;;;;;5052585;28;20441;-74
2021/10/02 06:12:57;;;;;;;;;;;16.90;99.90;;;;;;5052718;28;19909;-76
2021/10/02 06:15:25;;;;;;;;;;;17.00;99.90;;;;;;5053278;28;19970;-75
2021/10/02 06:17:52;;;;;;;;;;;16.90;99.90;;;;;;5054237;28;20054;-76
2021/10/02 06:20:19;;;;;;;;;;;16.90;99.90;;;;;;5053974;28;19909;-76
2021/10/02 06:22:45;;;;;;;;;;;16.90;99.90;;;;;;5053665;28;19915;-76
2021/10/02 06:25:12;;;;;;;;;;;17.00;99.90;;;;;;5052728;28;19913;-75
2021/10/02 06:27:39;;;;;;;;;;;16.90;99.90;;;;;;5052321;28;19909;-76
2021/10/02 06:30:07;;;;;;;;;;;17.00;99.90;;;;;;5051575;28;19948;-76
2021/10/02 06:32:33;;;;;;;;;;;17.00;99.90;;;;;;5052024;28;19916;-76
2021/10/02 06:35:00;;;;;;;;;;;17.10;99.90;;;;;;5051831;28;19909;-76
2021/10/02 06:37:27;;;;;;;;;;;17.10;99.90;;;;;;5052874;28;19970;-75
2021/10/02 06:39:53;;;;;;;;;;;17.00;99.90;;;;;;5052504;28;19960;-75
2021/10/02 06:42:20;;;;;;;;;;;17.00;99.90;;;;;;5052765;28;20002;-74
2021/10/02 06:44:47;;;;;;;;;;;17.00;99.90;;;;;;5052253;28;19909;-75
2021/10/02 06:47:13;;;;;;;;;;;17.10;99.90;;;;;;5051299;28;20032;-75
2021/10/02 06:49:40;;;;;;;;;;;17.20;99.90;;;;;;5051766;28;19921;-75
2021/10/02 06:52:06;;;;;;;;;;;17.20;99.90;;;;;;5051883;28;19915;-74
2021/10/02 06:54:33;;;;;;;;;;;17.20;99.90;;;;;;5051981;28;19908;-74
2021/10/02 06:57:00;;;;;;;;;;;17.20;99.90;;;;;;5051917;28;19917;-74
2021/10/02 06:59:27;;;;;;;;;;;17.30;99.90;;;;;;5051778;28;19913;-74
2021/10/02 07:01:54;;;;;;;;;;;17.10;99.90;;;;;;5050953;28;19912;-74
2021/10/02 07:04:21;;;;;;;;;;;17.00;99.90;;;;;;5051788;28;19939;-74
2021/10/02 07:06:48;;;;;;;;;;;17.00;99.90;;;;;;5051764;28;19913;-74
2021/10/02 07:09:17;;;;;;;;;;;17.00;99.90;;;;;;5051704;28;19940;-74
2021/10/02 07:11:44;;;;;;;;;;;17.00;99.90;;;;;;5049988;28;20359;-75
2021/10/02 07:14:10;;;;;;;;;;;17.00;99.90;;;;;;5052709;28;19955;-72
2021/10/02 07:16:37;;;;;;;;;;;17.10;99.90;;;;;;5063307;28;19908;-74
2021/10/02 07:19:04;;;;;;;;;;;17.00;99.90;;;;;;5052941;28;19954;-74
2021/10/02 07:21:30;;;;;;;;;;;17.00;99.90;;;;;;5051249;28;19936;-73
2021/10/02 07:23:57;;;;;;;;;;;17.00;99.90;;;;;;5051638;28;19913;-74
2021/10/02 07:26:26;;;;;;;;;;;16.90;99.90;;;;;;5051133;28;19915;-74
2021/10/02 07:28:53;;;;;;;;;;;16.80;99.90;;;;;;5051429;28;20280;-74
2021/10/02 07:31:20;;;;;;;;;;;16.70;99.90;;;;;;5051460;28;19948;-74
2021/10/02 07:33:48;;;;;;;;;;;16.50;99.90;;;;;;5051178;28;19909;-74
2021/10/02 07:36:18;;;;;;;;;;;16.40;99.90;;;;;;5051009;28;20452;-73
2021/10/02 07:38:45;;;;;;;;;;;16.30;99.90;;;;;;5051154;28;19956;-74
2021/10/02 07:41:13;;;;;;;;;;;16.30;99.90;;;;;;5051036;28;19967;-74
2021/10/02 07:43:44;;;;;;;;;;;16.20;99.90;;;;;;5050399;28;19936;-73
2021/10/02 07:46:12;;;;;;;;;;;16.20;99.90;;;;;;5051380;28;20030;-72
2021/10/02 07:48:40;;;;;;;;;;;16.30;99.90;;;;;;5051071;28;19986;-73
2021/10/02 07:51:07;;;;;;;;;;;16.30;99.90;;;;;;5050253;28;19912;-73
2021/10/02 07:53:34;;;;;;;;;;;16.30;99.90;;;;;;5050982;28;20145;-75
2021/10/02 07:56:01;;;;;;;;;;;16.30;99.90;;;;;;5050877;28;19919;-73
2021/10/02 07:58:27;;;;;;;;;;;16.30;99.90;;;;;;5050907;28;19913;-72
2021/10/02 08:00:55;;;;;;;;;;;16.40;99.90;;;;;;5050939;28;19916;-73
2021/10/02 08:03:22;;;;;;;;;;;16.30;99.90;;;;;;5082578;28;20264;-73
2021/10/02 08:05:49;;;;;;;;;;;16.20;99.90;;;;;;5050043;28;19917;-75
2021/10/02 08:08:19;;;;;;;;;;;16.20;99.90;;;;;;5051478;28;19944;-75
2021/10/02 08:10:47;;;;;;;;;;;16.30;99.90;;;;;;5051012;28;19920;-76
2021/10/02 08:13:14;;;;;;;;;;;16.40;99.90;;;;;;5051399;28;19909;-75
2021/10/02 08:15:45;;;;;;;;;;;16.30;99.90;;;;;;5048910;28;19915;-75
2021/10/02 08:18:27;;;;;;;;;;;;;;;;;;;;;
2021/10/02 08:20:54;;;;;;;;;;;16.40;99.90;;;;;;5049600;28;19909;-74
2021/10/02 08:23:25;;;;;;;;;;;16.30;99.90;;;;;;5050368;28;20359;-73
2021/10/02 08:25:53;;;;;;;;;;;16.30;99.90;;;;;;5050217;28;19919;-74
2021/10/02 08:28:20;;;;;;;;;;;16.30;99.90;;;;;;5049455;28;19916;-73
2021/10/02 08:30:50;;;;;;;;;;;16.30;99.90;;;;;;5050250;28;20340;-73
2021/10/02 08:33:17;;;;;;;;;;;16.10;99.90;;;;;;5050279;28;19916;-73
2021/10/02 08:35:43;;;;;;;;;;;16.10;99.90;;;;;;5049601;28;19913;-72
2021/10/02 08:38:11;;;;;;;;;;;16.10;99.90;;;;;;5050275;28;19913;-73
2021/10/02 08:40:38;;;;;;;;;;;16.10;99.90;;;;;;5050583;28;19913;-73
2021/10/02 08:43:09;;;;;;;;;;;16.00;99.90;;;;;;5050207;28;19909;-73
2021/10/02 08:45:36;;;;;;;;;;;16.10;99.90;;;;;;5050261;28;19909;-73
2021/10/02 08:48:03;;;;;;;;;;;16.10;99.90;;;;;;5050051;28;19928;-73
2021/10/02 08:50:31;;;;;;;;;;;16.10;99.90;;;;;;5062820;28;19928;-73
2021/10/02 08:52:57;;;;;;;;;;;16.10;99.90;;;;;;5054807;28;20494;-73
2021/10/02 08:55:24;;;;;;;;;;;16.10;99.90;;;;;;5053612;28;19916;-73
2021/10/02 08:57:52;;;;;;;;;;;16.10;99.90;;;;;;5053884;28;19916;-73
2021/10/02 09:00:21;;;;;;;;;;;16.00;99.90;;;;;;5054602;28;20388;-73
2021/10/02 09:02:49;;;;;;;;;;;16.00;99.90;;;;;;5054573;28;19948;-73
2021/10/02 09:05:16;;;;;;;;;;;16.00;99.90;;;;;;5053723;28;19909;-72
2021/10/02 09:07:48;;;;;;;;;;;16.00;99.90;;;;;;5053641;28;19908;-73
2021/10/02 09:10:15;;;;;;;;;;;16.00;99.90;;;;;;5053799;28;20441;-73
2021/10/02 09:12:44;;;;;;;;;;;16.00;99.90;;;;;;5053932;28;19909;-73
2021/10/02 09:15:11;;;;;;;;;;;16.00;99.90;;;;;;5053732;28;20370;-74
2021/10/02 09:17:38;;;;;;;;;;;16.00;99.90;;;;;;5053679;28;19936;-74
2021/10/02 09:20:06;;;;;;;;;;;16.00;99.90;;;;;;5053341;28;19913;-74
2021/10/02 09:22:33;;;;;;;;;;;16.10;99.90;;;;;;5053387;28;20007;-73
2021/10/02 09:25:02;;;;;;;;;;;16.10;99.90;;;;;;5053578;28;19908;-73
2021/10/02 09:27:30;;;;;;;;;;;16.10;99.90;;;;;;5053416;28;19913;-73
2021/10/02 09:29:58;;;;;;;;;;;16.10;99.90;;;;;;5053352;28;19917;-73
2021/10/02 09:32:30;;;;;;;;;;;16.10;99.90;;;;;;5053525;28;19908;-73
2021/10/02 09:34:58;;;;;;;;;;;16.10;99.90;;;;;;5051046;28;19932;-73
2021/10/02 09:37:25;;;;;;;;;;;16.10;99.90;;;;;;5053317;28;19909;-73
2021/10/02 09:40:03;;;;;;;;;;;16.10;99.90;;;;;;5053061;28;19908;-73
2021/10/02 09:42:40;;;;;;;;;;;16.20;99.90;;;;;;5053257;28;19916;-73
2021/10/02 09:45:09;;;;;;;;;;;16.20;99.90;;;;;;5053315;28;19909;-72
2021/10/02 09:47:37;;;;;;;;;;;16.30;99.90;;;;;;5052589;28;20410;-74
2021/10/02 09:50:26;;;;;;;;;;;16.20;99.90;;;;;;5052829;28;19939;-74
2021/10/02 09:52:57;;;;;;;;;;;16.00;99.90;;;;;;5055263;28;19948;-73
2021/10/02 09:55:27;;;;;;;;;;;15.90;99.90;;;;;;5053172;28;19921;-74
2021/10/02 09:57:54;;;;;;;;;;;15.80;99.90;;;;;;5052856;28;20275;-73
2021/10/02 10:00:25;;;;;;;;;;;15.80;99.90;;;;;;5052730;28;19913;-73
2021/10/02 10:02:52;;;;;;;;;;;15.90;99.90;;;;;;5052808;28;19916;-74
2021/10/02 10:05:19;;;;;;;;;;;16.00;99.90;;;;;;5051245;28;19909;-73
2021/10/02 10:08:05;;;;;;;;;;;16.10;99.90;;;;;;5053384;28;20120;-73
2021/10/02 10:10:34;;;;;;;;;;;16.20;99.90;;;;;;5065695;28;19921;-74
2021/10/02 10:13:19;;;;;;;;;;;16.30;99.90;;;;;;5053287;28;19916;-73
2021/10/02 10:15:47;;;;;;;;;;;16.20;99.90;;;;;;5052490;28;20279;-74
2021/10/02 10:18:28;;;;;;;;;;;16.10;99.90;;;;;;5052683;28;19909;-74
2021/10/02 10:20:56;;;;;;;;;;;16.00;99.90;;;;;;5052671;28;19909;-74
2021/10/02 10:23:28;;;;;;;;;;;16.00;99.90;;;;;;5052706;28;19929;-74
2021/10/02 10:25:57;;;;;;;;;;;15.90;99.90;;;;;;5070341;28;19973;-73
2021/10/02 10:28:26;;;;;;;;;;;15.90;99.90;;;;;;5053433;28;19917;-73
2021/10/02 10:30:53;;;;;;;;;;;15.90;99.90;;;;;;5052241;28;19913;-73
2021/10/02 10:33:21;;;;;;;;;;;15.80;99.90;;;;;;5050814;28;19917;-74
2021/10/02 10:35:52;;;;;;;;;;;15.70;99.90;;;;;;5051924;28;19951;-72
2021/10/02 10:38:21;;;;;;;;;;;15.70;99.90;;;;;;5052210;28;19909;-73
2021/10/02 10:40:48;;;;;;;;;;;15.70;99.90;;;;;;5051789;28;19919;-73
2021/10/02 10:43:15;;;;;;;;;;;15.60;99.90;;;;;;5052154;28;20417;-73
2021/10/02 10:45:41;;;;;;;;;;;15.70;99.90;;;;;;5052363;28;19909;-73
2021/10/02 10:48:08;;;;;;;;;;;15.70;99.90;;;;;;5052034;28;20322;-73
2021/10/02 10:50:39;;;;;;;;;;;15.90;99.90;;;;;;5051372;28;20370;-74
2021/10/02 10:53:06;;;;;;;;;;;15.90;99.90;;;;;;5052156;28;20389;-73
2021/10/02 10:55:33;;;;;;;;;;;15.90;99.90;;;;;;5052293;28;19913;-72
2021/10/02 10:58:01;;;;;;;;;;;15.90;99.90;;;;;;5052679;28;20020;-72
2021/10/02 11:00:31;;;;;;;;;;;15.80;99.90;;;;;;5052116;28;19915;-72
2021/10/02 11:03:07;;;;;;;;;;;15.70;99.90;;;;;;5051832;28;19970;-72
2021/10/02 11:05:37;;;;;;;;;;;15.60;99.90;;;;;;5051425;28;19935;-72
2021/10/02 11:08:03;;;;;;;;;;;15.70;99.90;;;;;;5051890;28;19967;-72
2021/10/02 11:10:45;;;;;;;;;;;15.70;99.90;;;;;;5051901;28;20324;-72
2021/10/02 11:13:13;;;;;;;;;;;15.70;99.90;;;;;;5051699;28;19913;-71
2021/10/02 11:15:41;;;;;;;;;;;15.70;99.90;;;;;;5051537;28;19947;-73
2021/10/02 11:18:27;;;;;;;;;;;15.80;99.90;;;;;;5051436;28;20327;-74
2021/10/02 11:21:02;;;;;;;;;;;15.70;99.90;;;;;;5050906;28;20362;-72
2021/10/02 11:23:40;;;;;;;;;;;15.70;99.90;;;;;;5051257;28;20580;-72
2021/10/02 11:26:10;;;;;;;;;;;15.80;99.90;;;;;;5051354;28;19967;-74
2021/10/02 11:28:37;;;;;;;;;;;15.90;99.90;;;;;;5051263;28;20252;-71
2021/10/02 11:31:12;;;;;;;;;;;16.00;99.90;;;;;;5066689;28;19917;-74
2021/10/02 11:33:41;;;;;;;;;;;15.80;99.90;;;;;;5050779;28;20465;-74
2021/10/02 11:36:26;;;;;;;;;;;15.80;99.90;;;;;;5051244;28;20348;-75
2021/10/02 11:39:08;;;;;;;;;;;15.70;99.90;;;;;;5066455;28;19952;-74
2021/10/02 11:41:36;;;;;;;;;;;15.70;99.90;;;;;;5050712;28;20386;-75
2021/10/02 11:44:03;;;;;;;;;;;15.60;99.90;;;;;;5051017;28;19917;-74
2021/10/02 11:46:29;;;;;;;;;;;15.60;99.90;;;;;;5050571;28;20017;-74
2021/10/02 11:49:11;;;;;;;;;;;15.80;99.90;;;;;;5050649;28;19921;-74
2021/10/02 11:51:38;;;;;;;;;;;15.90;99.90;;;;;;5050626;28;19916;-75
2021/10/02 11:54:09;;;;;;;;;;;15.90;99.90;;;;;;5051616;28;19995;-74
2021/10/02 11:56:36;;;;;;;;;;;15.80;99.90;;;;;;5050677;28;19909;-75
2021/10/02 11:59:04;;;;;;;;;;;15.80;99.90;;;;;;5059989;28;19916;-73
2021/10/02 12:01:32;;;;;;;;;;;15.70;99.90;;;;;;5057180;28;19909;-74
2021/10/02 12:04:03;;;;;;;;;;;15.60;99.90;;;;;;5050544;28;19919;-74
2021/10/02 12:06:30;;;;;;;;;;;15.60;99.90;;;;;;5050783;28;19909;-75
2021/10/02 12:08:58;;;;;;;;;;;15.50;99.90;;;;;;5050412;28;19978;-74
2021/10/02 12:11:28;;;;;;;;;;;15.50;99.90;;;;;;5050269;28;19908;-74
2021/10/02 12:13:56;;;;;;;;;;;15.50;99.90;;;;;;5050549;28;19913;-74
2021/10/02 12:16:24;;;;;;;;;;;15.40;99.90;;;;;;5050547;28;19922;-74
2021/10/02 12:18:58;;;;;;;;;;;15.40;99.90;;;;;;5050355;28;19916;-75
2021/10/02 12:21:27;;;;;;;;;;;15.30;99.90;;;;;;5050773;28;19916;-74
2021/10/02 12:24:02;;;;;;;;;;;15.20;99.90;;;;;;5049999;28;19909;-74
2021/10/02 12:26:29;;;;;;;;;;;15.20;99.90;;;;;;5050389;28;19912;-74
2021/10/02 12:29:02;;;;;;;;;;;15.20;99.90;;;;;;5051747;28;19924;-73
2021/10/02 12:31:41;;;;;;;;;;;15.30;99.90;;;;;;5054618;28;20367;-73
2021/10/02 12:34:12;;;;;;;;;;;15.30;99.90;;;;;;5070176;28;19951;-74
2021/10/02 12:36:39;;;;;;;;;;;15.30;99.90;;;;;;5054199;28;19909;-74
2021/10/02 12:39:06;;;;;;;;;;;15.30;99.90;;;;;;5054717;28;19912;-73
2021/10/02 12:41:40;;;;;;;;;;;15.30;99.90;;;;;;5054311;28;19920;-74
2021/10/02 12:44:14;;;;;;;;;;;15.30;99.90;;;;;;5054294;28;19909;-74
2021/10/02 12:46:41;;;;;;;;;;;15.30;99.90;;;;;;5054359;28;20307;-73
2021/10/02 12:49:08;;;;;;;;;;;15.20;99.90;;;;;;5054096;28;20027;-74
2021/10/02 12:51:34;;;;;;;;;;;15.20;99.90;;;;;;5053596;28;19909;-73
2021/10/02 12:54:01;;;;;;;;;;;15.20;99.90;;;;;;5054072;28;20228;-73
2021/10/02 12:56:28;;;;;;;;;;;15.20;99.90;;;;;;5054417;28;20027;-74
2021/10/02 12:58:54;;;;;;;;;;;15.10;99.90;;;;;;5054394;28;19916;-73
2021/10/02 13:01:22;;;;;;;;;;;15.20;99.90;;;;;;5053969;28;20359;-73
2021/10/02 13:03:49;;;;;;;;;;;15.10;99.90;;;;;;5053388;28;19909;-73
2021/10/02 13:06:16;;;;;;;;;;;15.20;99.90;;;;;;5053903;28;20000;-73
2021/10/02 13:08:42;;;;;;;;;;;15.10;99.90;;;;;;5053810;28;19913;-73
2021/10/02 13:11:09;;;;;;;;;;;15.10;99.90;;;;;;5053986;28;19908;-74
2021/10/02 13:13:38;;;;;;;;;;;15.10;99.90;;;;;;5053627;28;19920;-74
2021/10/02 13:16:05;;;;;;;;;;;15.10;99.90;;;;;;5053423;28;19912;-73
2021/10/02 13:18:32;;;;;;;;;;;15.00;99.90;;;;;;5053651;28;19999;-73
2021/10/02 13:21:03;;;;;;;;;;;15.00;99.90;;;;;;5053883;28;19909;-73
2021/10/02 13:23:34;;;;;;;;;;;15.00;99.90;;;;;;5053698;28;20283;-74
2021/10/02 13:26:05;;;;;;;;;;;15.00;99.90;;;;;;5054009;28;19908;-74
2021/10/02 13:28:34;;;;;;;;;;;15.00;99.90;;;;;;5069024;28;19916;-73
2021/10/02 13:31:08;;;;;;;;;;;15.10;99.90;;;;;;5053219;28;20000;-73
2021/10/02 13:33:39;;;;;;;;;;;15.10;99.90;;;;;;5059169;28;20283;-73
2021/10/02 13:36:06;;;;;;;;;;;15.10;99.90;;;;;;5064344;28;19920;-73
2021/10/02 13:38:34;;;;;;;;;;;15.10;99.90;;;;;;5053574;28;20012;-73
2021/10/02 13:41:02;;;;;;;;;;;15.10;99.90;;;;;;5053603;28;19916;-74
2021/10/02 13:43:28;;;;;;;;;;;15.10;99.90;;;;;;5052997;28;19915;-73
2021/10/02 13:45:56;;;;;;;;;;;15.10;99.90;;;;;;5052950;28;20422;-73
2021/10/02 13:48:27;;;;;;;;;;;15.10;99.90;;;;;;5052945;28;19935;-74
2021/10/02 13:50:54;;;;;;;;;;;15.10;99.90;;;;;;5068454;28;19966;-74
2021/10/02 13:53:21;;;;;;;;;;;15.10;99.90;;;;;;5053117;28;20371;-73
2021/10/02 13:55:47;;;;;;;;;;;15.10;99.90;;;;;;5052493;28;19962;-73
2021/10/02 13:58:14;;;;;;;;;;;15.10;99.90;;;;;;5052920;28;19909;-73
2021/10/02 14:00:41;;;;;;;;;;;15.10;99.90;;;;;;5051553;28;19996;-73
2021/10/02 14:03:08;;;;;;;;;;;15.10;99.90;;;;;;5052672;28;19908;-72
2021/10/02 14:05:37;;;;;;;;;;;15.10;99.90;;;;;;5051435;28;20287;-73
2021/10/02 14:08:04;;;;;;;;;;;15.10;99.90;;;;;;5052862;28;19909;-74
2021/10/02 14:10:31;;;;;;;;;;;15.10;99.90;;;;;;5052503;28;20419;-74
2021/10/02 14:12:59;;;;;;;;;;;15.20;99.90;;;;;;5052608;28;19954;-73
2021/10/02 14:15:25;;;;;;;;;;;15.10;99.90;;;;;;5052462;28;19912;-74
2021/10/02 14:17:52;;;;;;;;;;;15.10;99.90;;;;;;5052297;28;19931;-73
2021/10/02 14:20:19;;;;;;;;;;;15.10;99.90;;;;;;5052593;28;20295;-73
2021/10/02 14:22:46;;;;;;;;;;;15.10;99.90;;;;;;5052245;28;19948;-74
2021/10/02 14:25:13;;;;;;;;;;;15.20;99.90;;;;;;5052522;28;19940;-74
2021/10/02 14:27:40;;;;;;;;;;;15.20;99.90;;;;;;5052291;28;20334;-73
2021/10/02 14:30:07;;;;;;;;;;;15.10;99.90;;;;;;5052400;28;20269;-74
2021/10/02 14:32:34;;;;;;;;;;;15.10;99.90;;;;;;5052131;28;19913;-74
2021/10/02 14:35:01;;;;;;;;;;;15.10;99.90;;;;;;5052051;28;20430;-74
2021/10/02 14:37:27;;;;;;;;;;;15.20;99.90;;;;;;5052361;28;19916;-75
2021/10/02 14:39:54;;;;;;;;;;;15.20;99.90;;;;;;5052075;28;20012;-74
2021/10/02 14:42:21;;;;;;;;;;;15.20;99.90;;;;;;5052073;28;19947;-74
2021/10/02 14:44:48;;;;;;;;;;;15.20;99.90;;;;;;5052246;28;20272;-73
2021/10/02 14:47:15;;;;;;;;;;;15.20;99.90;;;;;;5051773;28;20309;-73
2021/10/02 14:49:42;;;;;;;;;;;15.10;99.90;;;;;;5051852;28;19917;-74
2021/10/02 14:52:09;;;;;;;;;;;15.20;99.90;;;;;;5051629;28;19954;-73
2021/10/02 14:54:39;;;;;;;;;;;15.20;99.90;;;;;;5067055;28;19913;-72
2021/10/02 14:57:06;;;;;;;;;;;15.20;99.90;;;;;;5051814;28;19916;-73
2021/10/02 14:59:32;;;;;;;;;;;15.20;99.90;;;;;;5051657;28;19916;-74
2021/10/02 15:02:01;;;;;;;;;;;15.20;99.90;;;;;;5051446;28;19909;-73
2021/10/02 15:04:28;;;;;;;;;;;15.20;99.90;;;;;;5051820;28;19939;-73
2021/10/02 15:06:56;;;;;;;;;;;15.20;99.90;;;;;;5051739;28;19913;-73
2021/10/02 15:09:23;;;;;;;;;;;15.20;99.90;;;;;;5051645;28;19925;-73
2021/10/02 15:11:50;;;;;;;;;;;15.20;99.90;;;;;;5067191;28;19955;-74
2021/10/02 15:14:18;;;;;;;;;;;15.30;99.90;;;;;;5052167;28;19917;-74
2021/10/02 15:16:45;;;;;;;;;;;15.30;99.90;;;;;;5051717;28;19909;-73
2021/10/02 15:19:11;;;;;;;;;;;15.30;99.90;;;;;;5051369;28;19909;-73
2021/10/02 15:21:46;;;;;;;;;;;15.30;99.90;;;;;;5051276;28;19913;-73
2021/10/02 15:24:13;;;;;;;;;;;15.20;99.90;;;;;;5051459;28;20379;-73